CDT,Max TemperatureF,Mean TemperatureF,Min TemperatureF,Max Dew PointF,MeanDew PointF,Min DewpointF,Max Humidity, Mean Humidity, Min Humidity, Max Sea Level PressureIn, Mean Sea Level PressureIn, Min Sea Level PressureIn, Max VisibilityMiles, Mean VisibilityMiles, Min VisibilityMiles, Max Wind SpeedMPH, Mean Wind SpeedMPH, Max Gust SpeedMPH,PrecipitationIn, CloudCover, Events, WindDirDegrees
2013-5-1,68,65,62,64,62,59,100,91,83,30.06,30.01,29.95,10,8,4,16,4,25,0.07,7,Rain-Thunderstorm,95
2013-5-2,71,65,59,63,60,55,94,84,69,30.07,30.03,30.00,10,10,5,16,7,21,0.04,7,Rain,88
2013-5-3,68,55,42,61,52,41,100,90,78,30.03,29.95,29.88,10,8,1,16,7,21,0.58,6,Rain-Thunderstorm,155
2013-5-4,64,48,33,50,40,34,100,74,32,30.01,29.95,29.88,10,9,0,8,1,17,0.05,4,Fog-Rain,289
2013-5-5,53,48,42,46,45,43,100,90,76,29.95,29.90,29.81,10,9,4,12,3,17,0.19,6,Rain,306
2013-5-6,62,52,42,55,50,41,100,91,77,29.96,29.92,29.88,10,10,7,8,2,,0.01,6,Rain,263
2013-5-7,73,60,46,61,53,45,100,82,47,30.04,29.99,29.92,10,8,0,7,1,,0.00,2,Fog,325
2013-5-8,78,63,48,63,55,48,100,75,42,30.11,30.06,30.01,10,8,3,6,0,,0.00,1,,265
2013-5-9,80,66,51,63,60,52,100,69,48,30.12,30.06,30.01,10,10,4,10,3,16,0.00,2,,199
2013-5-10,77,68,60,66,62,59,100,85,61,30.06,29.98,29.91,10,9,3,15,5,26,0.64,5,Rain-Thunderstorm,190
2013-5-11,73,64,55,66,61,54,100,86,64,30.07,29.99,29.94,10,9,2,9,2,16,0.12,4,Rain,310
2013-5-12,69,60,50,54,44,34,100,65,28,30.21,30.14,30.06,10,9,3,12,2,21,0.00,0,,352
2013-5-13,73,56,39,55,44,36,100,70,30,30.31,30.23,30.17,10,10,10,6,1,,0.00,0,,142
2013-5-14,84,67,50,59,52,48,100,66,32,30.23,30.16,30.10,10,10,10,10,2,16,0.00,0,,231
2013-5-15,82,66,51,64,56,52,100,70,37,30.19,30.11,30.02,10,10,10,8,2,,0.00,0,,223
2013-5-16,77,68,60,64,61,54,94,77,50,30.06,30.00,29.94,10,10,10,14,3,,0.01,3,Rain,159
2013-5-17,77,70,64,70,66,63,100,91,73,30.00,29.97,29.93,10,7,0,12,4,21,0.52,7,Fog-Rain-Thunderstorm,147
2013-5-18,82,75,68,73,70,66,100,88,70,30.05,29.99,29.95,7,5,1,7,3,,1.41,4,Rain-Thunderstorm,185
2013-5-19,82,75,68,70,69,66,100,80,62,30.03,29.99,29.96,10,8,2,8,3,,0.00,3,,161
2013-5-20,87,78,69,72,69,68,94,78,52,30.04,29.97,29.91,10,9,5,10,5,,0.00,3,,177
2013-5-21,86,77,68,70,68,64,100,75,51,29.98,29.92,29.81,10,9,3,10,4,17,0.00,2,,172
2013-5-22,80,70,60,68,63,61,100,84,58,29.98,29.91,29.85,10,9,1,10,5,23,0.75,4,Rain-Thunderstorm,219
2013-5-23,86,72,59,66,62,59,100,78,43,30.07,30.01,29.94,10,7,0,8,1,,0.00,2,Fog,302
2013-5-24,77,67,57,63,55,43,94,67,32,30.25,30.19,30.08,10,10,10,14,5,20,0.00,0,,21
2013-5-25,80,65,50,63,52,45,100,69,30,30.30,30.24,30.17,10,10,7,9,2,,0.00,0,,104
2013-5-26,84,68,53,64,56,50,100,70,32,30.23,30.17,30.12,10,10,7,6,1,,0.00,0,,183
2013-5-27,86,73,60,68,63,59,94,75,48,30.17,30.10,30.02,10,10,10,13,2,18,0.00,2,,170
2013-5-28,84,72,60,64,60,52,100,67,35,30.09,30.06,30.02,10,10,10,13,5,18,0.00,0,,170
2013-5-29,87,74,60,70,65,61,100,78,46,30.11,30.04,29.99,10,10,10,12,4,20,0.00,2,Rain-Thunderstorm,152
2013-5-30,84,75,66,70,68,64,94,80,58,30.09,30.03,29.97,10,10,10,15,6,22,0.00,3,Rain-Thunderstorm,145
2013-5-31,86,76,66,72,69,64,94,77,62,30.07,30.00,29.95,10,10,10,13,7,22,0.00,3,,156